Time;durP1;ratioP1;P1;durP2;ratioP2;P2;SDS_P1;SDS_P2;PMS_P1;PMS_P2;Temp;Humidity;BMP_temperature;BMP_pressure;BME280_temperature;BME280_humidity;BME280_pressure;Samples;Min_cycle;Max_cycle;Signal;HPM_P1;HPM_P2
2022/01/06 00:00:57;;;;;;;16.93;3.90;;;;;;;;;;4967648;28;20103;-68
2022/01/06 00:03:23;;;;;;;21.10;4.67;;;;;;;;;;4968351;28;20043;-68
2022/01/06 00:05:49;;;;;;;18.83;3.73;;;2.10;99.90;;;;;;4969237;28;20106;-68
2022/01/06 00:08:15;;;;;;;15.83;4.17;;;;;;;;;;4971509;28;20041;-69
2022/01/06 00:10:41;;;;;;;14.20;3.60;;;2.10;99.90;;;;;;4972547;28;20471;-68
2022/01/06 00:13:13;;;;;;;15.30;4.93;;;2.10;99.90;;;;;;4972936;28;20491;-68
2022/01/06 00:15:59;;;;;;;19.47;3.83;;;;;;;;;;4971668;28;20022;-68
2022/01/06 00:18:39;;;;;;;23.87;4.17;;;1.80;99.90;;;;;;4970814;28;20035;-69
2022/01/06 00:23:49;;;;;;;21.20;5.00;;;2.00;99.90;;;;;;4972682;28;20037;-68
2022/01/06 00:26:15;;;;;;;16.27;3.07;;;;;;;;;;4972390;28;20400;-68
2022/01/06 00:28:40;;;;;;;29.10;3.77;;;2.00;99.90;;;;;;4972119;28;20034;-68
2022/01/06 00:31:06;;;;;;;20.73;4.67;;;2.10;99.90;;;;;;4971965;28;20066;-68
2022/01/06 00:33:33;;;;;;;20.27;4.10;;;2.00;99.90;;;;;;4971664;28;20041;-68
2022/01/06 00:35:59;;;;;;;17.80;3.13;;;2.00;99.90;;;;;;4972499;28;20081;-68
2022/01/06 00:38:25;;;;;;;23.83;4.50;;;2.20;99.90;;;;;;4972008;28;20049;-68
2022/01/06 00:40:52;;;;;;;20.77;4.83;;;2.20;99.90;;;;;;4972214;28;20077;-68
2022/01/06 00:43:18;;;;;;;16.23;3.43;;;2.10;99.90;;;;;;4970618;28;20424;-68
2022/01/06 00:45:44;;;;;;;20.47;3.83;;;;;;;;;;4971602;28;20102;-68
2022/01/06 00:48:10;;;;;;;19.30;2.60;;;;;;;;;;4970888;28;20034;-68
2022/01/06 00:50:42;;;;;;;15.37;2.53;;;1.90;99.90;;;;;;4970352;28;20428;-68
2022/01/06 00:53:08;;;;;;;12.37;3.23;;;2.10;99.90;;;;;;4970933;28;20543;-68
2022/01/06 00:55:34;;;;;;;14.30;3.00;;;2.10;99.90;;;;;;4970102;28;20062;-68
2022/01/06 00:58:01;;;;;;;18.63;4.03;;;2.00;99.90;;;;;;4972333;28;20115;-68
2022/01/06 01:00:37;;;;;;;27.47;4.23;;;2.60;99.90;;;;;;4971397;28;20062;-68
2022/01/06 01:03:04;;;;;;;11.17;3.03;;;;;;;;;;4972032;28;20039;-68
2022/01/06 01:05:30;;;;;;;15.97;4.33;;;;;;;;;;4971391;28;20026;-68
2022/01/06 01:07:56;;;;;;;15.73;2.60;;;;;;;;;;4971881;28;20080;-68
2022/01/06 01:10:22;;;;;;;22.90;2.80;;;;;;;;;;4971600;28;20150;-68
2022/01/06 01:12:48;;;;;;;16.03;2.37;;;1.90;99.90;;;;;;4970013;28;20080;-68
2022/01/06 01:15:22;;;;;;;13.47;2.60;;;1.90;99.90;;;;;;4970651;28;20473;-68
2022/01/06 01:17:48;;;;;;;18.58;2.75;;;1.70;99.90;;;;;;4971587;28;20041;-68
2022/01/06 01:20:16;;;;;;;9.77;2.20;;;1.90;99.90;;;;;;4970640;28;20027;-68
2022/01/06 01:22:42;;;;;;;16.40;4.23;;;2.00;99.90;;;;;;4970808;28;20042;-68
2022/01/06 01:25:08;;;;;;;17.33;2.07;;;1.80;99.90;;;;;;4971837;28;20050;-68
2022/01/06 01:27:42;;;;;;;17.53;3.43;;;;;;;;;;4970501;28;20476;-68
2022/01/06 01:30:12;;;;;;;19.70;2.13;;;1.40;99.90;;;;;;4971606;28;20030;-68
2022/01/06 01:32:40;;;;;;;9.90;2.87;;;1.90;99.90;;;;;;4970578;28;20121;-68
2022/01/06 01:35:08;;;;;;;25.40;2.80;;;1.80;99.90;;;;;;4971421;28;20476;-68
2022/01/06 01:37:36;;;;;;;20.77;3.30;;;1.70;99.90;;;;;;4970635;28;20081;-68
2022/01/06 01:40:03;;;;;;;15.33;2.47;;;1.80;99.90;;;;;;4971459;28;20456;-68
2022/01/06 01:42:29;;;;;;;18.73;3.17;;;1.70;99.90;;;;;;4970038;28;20042;-68
2022/01/06 01:44:55;;;;;;;9.00;2.47;;;1.70;99.90;;;;;;4971520;28;20113;-68
2022/01/06 01:47:30;;;;;;;19.70;3.40;;;1.70;99.90;;;;;;4971189;28;20469;-69
2022/01/06 01:50:12;;;;;;;14.57;2.47;;;2.20;99.90;;;;;;4971349;28;20539;-68
2022/01/06 01:52:40;;;;;;;20.97;3.10;;;1.60;99.90;;;;;;4970283;28;20535;-68
2022/01/06 01:55:07;;;;;;;10.27;2.63;;;1.60;99.90;;;;;;4971092;28;20106;-68
2022/01/06 01:57:33;;;;;;;10.40;3.27;;;;;;;;;;4969995;28;20034;-68
2022/01/06 01:59:59;;;;;;;19.57;2.97;;;1.60;99.90;;;;;;4971171;28;20856;-68
2022/01/06 02:02:25;;;;;;;28.43;3.23;;;;;;;;;;4970316;28;20074;-68
2022/01/06 02:04:52;;;;;;;13.03;2.27;;;1.60;99.90;;;;;;4970884;28;20411;-68
2022/01/06 02:07:19;;;;;;;14.07;2.17;;;1.70;99.90;;;;;;4970657;28;20539;-68
2022/01/06 02:09:45;;;;;;;18.47;2.70;;;;;;;;;;4970289;28;20027;-68
2022/01/06 02:12:32;;;;;;;18.83;2.57;;;1.80;99.90;;;;;;4969227;28;20123;-68
2022/01/06 02:14:58;;;;;;;16.33;3.10;;;1.70;99.90;;;;;;4970539;28;20023;-68
2022/01/06 02:17:24;;;;;;;14.00;2.30;;;;;;;;;;4970210;28;20027;-68
2022/01/06 02:20:00;;;;;;;12.83;2.43;;;0.90;99.90;;;;;;4970561;28;20058;-68
2022/01/06 02:22:26;;;;;;;7.97;1.60;;;1.90;99.90;;;;;;4969824;28;20476;-68
2022/01/06 02:24:53;;;;;;;19.13;2.93;;;1.80;99.90;;;;;;4969402;28;20510;-68
2022/01/06 02:27:20;;;;;;;9.53;3.07;;;1.70;99.90;;;;;;4970120;28;20027;-68
2022/01/06 02:29:47;;;;;;;10.43;2.83;;;1.60;99.90;;;;;;4969464;28;20027;-68
2022/01/06 02:32:16;;;;;;;14.47;2.80;;;1.70;99.90;;;;;;4970434;28;20146;-68
2022/01/06 02:34:45;;;;;;;13.60;2.07;;;1.70;99.90;;;;;;4969729;28;20023;-68
2022/01/06 02:37:12;;;;;;;7.73;1.60;;;1.50;99.90;;;;;;4970544;28;20742;-69
2022/01/06 02:39:37;;;;;;;18.00;3.57;;;1.60;99.90;;;;;;4969134;28;20063;-68
2022/01/06 02:42:03;;;;;;;12.83;2.27;;;1.50;99.90;;;;;;4970371;28;20457;-70
2022/01/06 02:44:29;;;;;;;9.90;1.87;;;1.40;99.90;;;;;;4969633;28;20050;-68
2022/01/06 02:46:55;;;;;;;14.87;2.00;;;1.30;99.90;;;;;;4969853;28;20057;-68
2022/01/06 02:49:20;;;;;;;12.83;2.40;;;1.20;99.90;;;;;;4970179;28;20114;-68
2022/01/06 02:51:46;;;;;;;14.87;2.80;;;;;;;;;;4984085;28;20026;-68
2022/01/06 02:54:13;;;;;;;20.03;2.83;;;1.40;99.90;;;;;;4969915;28;20023;-68
2022/01/06 02:56:41;;;;;;;9.47;2.83;;;1.40;99.90;;;;;;4969252;28;20023;-68
2022/01/06 02:59:07;;;;;;;16.10;2.60;;;1.40;99.90;;;;;;4970035;28;20547;-68
2022/01/06 03:01:37;;;;;;;12.53;2.70;;;1.50;99.90;;;;;;4969110;28;20058;-68
2022/01/06 03:04:03;;;;;;;14.57;2.40;;;1.30;99.90;;;;;;4970114;28;20034;-68
2022/01/06 03:06:29;;;;;;;19.50;2.80;;;1.50;99.90;;;;;;4969868;28;20030;-68
2022/01/06 03:08:54;;;;;;;9.77;2.17;;;1.30;99.90;;;;;;4968761;28;20031;-68
2022/01/06 03:11:25;;;;;;;20.20;4.17;;;;;;;;;;4984858;28;20493;-69
2022/01/06 03:13:51;;;;;;;13.90;2.13;;;;;;;;;;4968986;28;20022;-69
2022/01/06 03:16:16;;;;;;;15.77;2.30;;;1.30;99.90;;;;;;4969846;28;20476;-68
2022/01/06 03:18:42;;;;;;;25.80;3.93;;;;;;;;;;4968897;28;20125;-68
2022/01/06 03:21:08;;;;;;;10.83;1.80;;;2.30;99.90;;;;;;4968415;28;20027;-69
2022/01/06 03:23:33;;;;;;;16.40;2.77;;;1.40;99.90;;;;;;4969113;28;20039;-68
2022/01/06 03:25:59;;;;;;;15.17;1.93;;;;;;;;;;4984063;28;20443;-68
2022/01/06 03:28:25;;;;;;;15.60;2.40;;;1.20;99.90;;;;;;4969731;28;20077;-69
2022/01/06 03:30:50;;;;;;;10.53;2.87;;;1.10;99.90;;;;;;4968652;28;20080;-68
2022/01/06 03:33:16;;;;;;;9.73;2.10;;;1.20;99.90;;;;;;4969752;28;20085;-68
2022/01/06 03:35:42;;;;;;;8.87;2.00;;;;;;;;;;4969261;28;20066;-68
2022/01/06 03:38:07;;;;;;;17.33;1.87;;;1.00;99.90;;;;;;4968653;28;20035;-68
2022/01/06 03:40:33;;;;;;;8.40;2.07;;;1.20;99.90;;;;;;4969227;28;20045;-69
2022/01/06 03:42:59;;;;;;;15.23;1.80;;;;;;;;;;4971057;28;20038;-69
2022/01/06 03:45:24;;;;;;;8.37;3.23;;;0.70;99.90;;;;;;4972987;28;20038;-69
2022/01/06 03:47:50;;;;;;;9.47;1.83;;;0.80;99.90;;;;;;4970700;28;20031;-69
2022/01/06 03:50:16;;;;;;;8.57;1.20;;;0.70;99.90;;;;;;4971271;28;20030;-69
2022/01/06 03:52:42;;;;;;;7.90;1.93;;;;;;;;;;4970626;28;20062;-68
2022/01/06 03:55:11;;;;;;;14.77;1.80;;;0.60;99.90;;;;;;4971064;28;20035;-68
2022/01/06 03:57:37;;;;;;;19.10;2.23;;;;;;;;;;4971243;28;20039;-69
2022/01/06 04:00:09;;;;;;;14.73;2.27;;;0.60;99.90;;;;;;4971450;28;20403;-68
2022/01/06 04:02:35;;;;;;;10.80;2.77;;;0.80;99.90;;;;;;4971793;28;20035;-69
2022/01/06 04:05:05;;;;;;;15.10;3.07;;;1.00;99.90;;;;;;4971270;28;20042;-68
2022/01/06 04:07:32;;;;;;;15.97;2.70;;;0.90;99.90;;;;;;4968170;28;20026;-68
2022/01/06 04:09:58;;;;;;;16.77;2.63;;;0.70;99.90;;;;;;4972504;28;20483;-68
2022/01/06 04:12:24;;;;;;;8.67;1.97;;;;;;;;;;4972296;28;20035;-68
2022/01/06 04:14:49;;;;;;;7.77;1.57;;;0.60;99.90;;;;;;4972518;28;20499;-68
2022/01/06 04:17:15;;;;;;;9.17;1.87;;;;;;;;;;4972642;28;20146;-69
2022/01/06 04:19:41;;;;;;;11.03;2.43;;;;;;;;;;4972573;28;20032;-68
2022/01/06 04:22:07;;;;;;;12.73;1.87;;;;;;;;;;4971929;28;20046;-69
2022/01/06 04:24:33;;;;;;;16.20;3.53;;;0.50;99.90;;;;;;4971288;28;20027;-69
2022/01/06 04:26:59;;;;;;;12.67;1.80;;;;;;;;;;4972590;28;20023;-69
2022/01/06 04:29:24;;;;;;;8.50;1.70;;;0.30;99.90;;;;;;4972565;28;20492;-69
2022/01/06 04:31:50;;;;;;;8.53;1.73;;;0.10;99.90;;;;;;4972123;28;20071;-68
2022/01/06 04:34:16;;;;;;;7.63;1.70;;;;;;;;;;4972401;28;20041;-68
2022/01/06 04:36:50;;;;;;;8.60;1.83;;;0.20;99.90;;;;;;4970411;28;20031;-69
2022/01/06 04:39:16;;;;;;;11.60;1.70;;;0.40;99.90;;;;;;4972427;28;20388;-68
2022/01/06 04:41:42;;;;;;;11.57;1.30;;;0.60;99.90;;;;;;4987151;28;20035;-68
2022/01/06 04:44:07;;;;;;;9.70;2.17;;;0.20;99.90;;;;;;4972138;28;20913;-69
2022/01/06 04:46:33;;;;;;;13.83;2.50;;;0.20;99.90;;;;;;4972143;28;20061;-68
2022/01/06 04:48:58;;;;;;;8.07;2.70;;;0.30;99.90;;;;;;4972055;28;20380;-69
2022/01/06 04:51:24;;;;;;;10.43;1.93;;;;;;;;;;4971321;28;20041;-68
2022/01/06 04:53:50;;;;;;;11.47;2.23;;;0.30;99.90;;;;;;4971411;28;20034;-69
2022/01/06 04:56:15;;;;;;;7.27;1.97;;;0.70;99.90;;;;;;4972191;28;20455;-69
2022/01/06 04:58:41;;;;;;;11.97;1.57;;;;;;;;;;4972053;28;20030;-68
2022/01/06 05:01:07;;;;;;;7.43;1.57;;;0.10;99.90;;;;;;4970625;28;20034;-69
2022/01/06 05:03:32;;;;;;;12.83;1.87;;;;;;;;;;4971315;28;20039;-69
2022/01/06 05:05:58;;;;;;;14.30;1.83;;;0.40;99.90;;;;;;4971212;28;20026;-69
2022/01/06 05:08:26;;;;;;;9.20;1.53;;;;;;;;;;4971634;28;20030;-69
2022/01/06 05:10:52;;;;;;;20.27;2.47;;;0.20;99.90;;;;;;4971605;28;20058;-68
2022/01/06 05:13:17;;;;;;;11.87;1.53;;;0.50;99.90;;;;;;4971862;28;20109;-68
2022/01/06 05:15:43;;;;;;;9.40;2.50;;;;;;;;;;4971626;28;20034;-69
2022/01/06 05:18:09;;;;;;;6.77;1.20;;;;;;;;;;4971454;28;20094;-69
2022/01/06 05:20:37;;;;;;;15.20;2.00;;;;;;;;;;4970862;28;20031;-68
2022/01/06 05:23:03;;;;;;;12.10;1.40;;;0.40;99.90;;;;;;4971644;28;20058;-69
2022/01/06 05:25:30;;;;;;;15.83;1.97;;;0.30;99.90;;;;;;4971418;28;20789;-68
2022/01/06 05:27:56;;;;;;;14.67;2.60;;;0.20;99.90;;;;;;4971496;28;20030;-68
2022/01/06 05:30:23;;;;;;;4.33;1.63;;;0.20;99.90;;;;;;4971474;28;20026;-68
2022/01/06 05:32:49;;;;;;;8.97;1.47;;;;;;;;;;4971262;28;20050;-68
2022/01/06 05:35:14;;;;;;;14.97;1.70;;;0.30;99.90;;;;;;4970764;28;20031;-69
2022/01/06 05:37:40;;;;;;;13.90;2.13;;;0.60;99.90;;;;;;4986162;28;20038;-68
2022/01/06 05:40:06;;;;;;;8.50;2.43;;;0.30;99.90;;;;;;4971326;28;20045;-69
2022/01/06 05:42:32;;;;;;;12.07;2.07;;;0.20;99.90;;;;;;4970793;28;20396;-69
2022/01/06 05:44:57;;;;;;;8.20;2.30;;;0.50;99.90;;;;;;4970264;28;20035;-68
2022/01/06 05:47:23;;;;;;;10.47;1.87;;;;;;;;;;4971097;28;20113;-69
2022/01/06 05:49:49;;;;;;;9.73;2.17;;;;;;;;;;4970510;28;20027;-68
2022/01/06 05:52:15;;;;;;;19.00;2.20;;;-0.10;99.90;;;;;;4971029;28;20034;-69
2022/01/06 05:54:41;;;;;;;11.17;2.13;;;;;;;;;;4969628;28;20073;-69
2022/01/06 05:57:08;;;;;;;5.37;1.30;;;0.10;99.90;;;;;;4970993;28;20042;-69
2022/01/06 05:59:34;;;;;;;10.50;1.47;;;0.00;99.90;;;;;;4970601;28;20031;-69
2022/01/06 06:02:00;;;;;;;16.23;2.20;;;0.00;99.90;;;;;;4970771;28;20472;-68
2022/01/06 06:04:26;;;;;;;14.00;2.13;;;0.20;99.90;;;;;;4969984;28;20027;-68
2022/01/06 06:06:52;;;;;;;11.07;2.07;;;0.20;99.90;;;;;;4969834;28;20038;-69
2022/01/06 06:09:17;;;;;;;13.67;1.43;;;-0.10;99.90;;;;;;4970815;28;20038;-68
2022/01/06 06:11:43;;;;;;;8.67;1.70;;;;;;;;;;4985520;28;20054;-69
2022/01/06 06:14:09;;;;;;;14.73;1.77;;;;;;;;;;4970313;28;20065;-69
2022/01/06 06:16:35;;;;;;;12.70;2.37;;;;;;;;;;4970593;28;20089;-69
2022/01/06 06:19:00;;;;;;;9.13;1.90;;;0.00;99.90;;;;;;4970106;28;20522;-69
2022/01/06 06:21:26;;;;;;;19.07;2.80;;;;;;;;;;4970035;28;20121;-69
2022/01/06 06:23:52;;;;;;;12.70;2.93;;;0.10;99.90;;;;;;4970305;28;20041;-68
2022/01/06 06:26:18;;;;;;;11.10;2.00;;;;;;;;;;4968968;28;20038;-69
2022/01/06 06:28:44;;;;;;;11.10;2.50;;;;;;;;;;4969982;28;20365;-69
2022/01/06 06:31:10;;;;;;;9.73;1.30;;;;;;;;;;4970195;28;20130;-69
2022/01/06 06:33:36;;;;;;;12.10;2.37;;;0.10;99.90;;;;;;4969888;28;20041;-68
2022/01/06 06:36:02;;;;;;;14.50;1.77;;;;;;;;;;4970259;28;20118;-69
2022/01/06 06:38:27;;;;;;;9.47;2.00;;;-0.30;99.90;;;;;;4969975;28;20031;-68
2022/01/06 06:40:53;;;;;;;8.00;3.43;;;0.00;99.90;;;;;;4969692;28;20027;-69
2022/01/06 06:43:18;;;;;;;10.67;2.80;;;0.00;99.90;;;;;;4969749;28;20101;-69
2022/01/06 06:45:44;;;;;;;7.57;2.23;;;0.10;99.90;;;;;;4970010;28;20027;-68
2022/01/06 06:48:10;;;;;;;15.93;3.70;;;0.00;99.90;;;;;;4969458;28;20034;-69
2022/01/06 06:50:36;;;;;;;11.70;2.80;;;0.00;99.90;;;;;;4969637;28;20049;-68
2022/01/06 06:53:02;;;;;;;19.57;3.27;;;;;;;;;;4969872;28;20022;-69
2022/01/06 06:55:28;;;;;;;11.33;2.37;;;0.40;99.90;;;;;;4969808;28;20026;-68
2022/01/06 06:57:54;;;;;;;10.60;2.27;;;0.10;99.90;;;;;;4969506;28;20046;-69
2022/01/06 07:00:20;;;;;;;16.07;2.93;;;;;;;;;;4970034;28;20027;-68
2022/01/06 07:02:46;;;;;;;10.10;1.90;;;;;;;;;;4969275;28;20069;-69
2022/01/06 07:05:12;;;;;;;12.93;2.90;;;0.40;99.90;;;;;;4969687;28;20057;-68
2022/01/06 07:07:38;;;;;;;12.13;2.53;;;;;;;;;;4966331;28;20484;-68
2022/01/06 07:10:05;;;;;;;14.47;3.13;;;0.30;99.90;;;;;;4961100;28;20074;-69
2022/01/06 07:12:30;;;;;;;8.37;3.27;;;0.20;99.90;;;;;;4966554;28;20591;-69
2022/01/06 07:14:57;;;;;;;12.80;3.17;;;0.30;99.90;;;;;;4967367;28;20154;-68
2022/01/06 07:17:23;;;;;;;16.33;3.27;;;;;;;;;;4968376;28;20388;-68
2022/01/06 07:19:49;;;;;;;8.87;2.40;;;;;;;;;;4969128;28;20031;-68
2022/01/06 07:22:15;;;;;;;11.80;2.47;;;0.30;99.90;;;;;;4968988;28;20046;-68
2022/01/06 07:24:40;;;;;;;13.57;2.30;;;0.20;99.90;;;;;;4969093;28;20436;-68
2022/01/06 07:27:06;;;;;;;16.57;2.67;;;;;;;;;;4969275;28;20034;-68
2022/01/06 07:29:32;;;;;;;9.37;3.00;;;0.20;99.90;;;;;;4967476;28;20027;-69
2022/01/06 07:31:57;;;;;;;19.00;3.27;;;0.20;99.90;;;;;;4969428;28;20460;-68
2022/01/06 07:34:23;;;;;;;24.20;5.33;;;;;;;;;;4969261;28;20038;-69
2022/01/06 07:36:49;;;;;;;15.43;3.23;;;0.30;99.90;;;;;;4969286;28;20038;-69
2022/01/06 07:39:14;;;;;;;14.17;4.30;;;0.30;99.90;;;;;;4969563;28;20089;-68
2022/01/06 07:41:40;;;;;;;8.63;2.53;;;;;;;;;;4969007;28;20444;-68
2022/01/06 07:44:07;;;;;;;9.37;3.23;;;0.20;99.90;;;;;;4968525;28;20043;-69
2022/01/06 07:46:36;;;;;;;11.43;4.83;;;0.10;99.90;;;;;;4968745;28;20684;-68
2022/01/06 07:49:03;;;;;;;13.80;3.77;;;0.20;99.90;;;;;;4968835;28;20112;-69
2022/01/06 07:51:30;;;;;;;13.37;4.03;;;0.30;99.90;;;;;;4967558;28;20019;-68
2022/01/06 07:53:58;;;;;;;20.43;3.43;;;0.20;99.90;;;;;;4968725;28;20041;-69
2022/01/06 07:56:24;;;;;;;16.33;3.63;;;;;;;;;;4968544;28;20029;-68
2022/01/06 07:58:49;;;;;;;11.60;3.57;;;0.20;99.90;;;;;;4967803;28;20496;-68
2022/01/06 08:01:16;;;;;;;10.23;4.20;;;0.20;99.90;;;;;;4968885;28;20034;-69
2022/01/06 08:03:42;;;;;;;15.67;3.50;;;0.30;99.90;;;;;;4968552;28;20035;-68
2022/01/06 08:06:09;;;;;;;15.40;3.27;;;0.20;99.90;;;;;;4968918;28;20090;-69
2022/01/06 08:08:35;;;;;;;15.60;3.57;;;;;;;;;;4968759;28;20085;-69
2022/01/06 08:11:01;;;;;;;12.37;2.93;;;0.30;99.90;;;;;;4969173;28;20030;-69
2022/01/06 08:13:27;;;;;;;12.30;3.37;;;;;;;;;;4968716;28;20031;-68
2022/01/06 08:15:52;;;;;;;7.37;3.43;;;0.20;99.90;;;;;;4968991;28;20027;-68
2022/01/06 08:18:18;;;;;;;7.57;2.90;;;;;;;;;;4969428;28;20476;-69
2022/01/06 08:20:44;;;;;;;8.30;3.07;;;0.00;99.90;;;;;;4968344;28;20408;-68
2022/01/06 08:23:10;;;;;;;8.60;2.50;;;;;;;;;;4968900;28;20039;-68
2022/01/06 08:25:36;;;;;;;10.17;2.73;;;0.00;99.90;;;;;;4967890;28;20023;-68
2022/01/06 08:28:03;;;;;;;18.07;3.43;;;0.10;99.90;;;;;;4966289;28;20035;-68
2022/01/06 08:30:29;;;;;;;12.63;4.00;;;;;;;;;;4970978;28;20465;-68
2022/01/06 08:32:55;;;;;;;9.77;2.70;;;-0.10;99.90;;;;;;4971260;28;20157;-68
2022/01/06 08:35:24;;;;;;;13.03;2.70;;;0.00;99.90;;;;;;4971233;28;20029;-68
2022/01/06 08:37:50;;;;;;;10.13;3.07;;;-0.10;99.90;;;;;;4970961;28;20053;-67
2022/01/06 08:40:16;;;;;;;4.50;1.70;;;0.10;99.90;;;;;;4970182;28;20125;-68
2022/01/06 08:42:42;;;;;;;12.90;2.70;;;;;;;;;;4984716;28;20090;-68
2022/01/06 08:45:09;;;;;;;18.67;3.33;;;0.20;99.90;;;;;;4970839;28;20113;-68
2022/01/06 08:47:34;;;;;;;14.10;2.53;;;0.30;99.90;;;;;;4970505;28;20505;-68
2022/01/06 08:50:00;;;;;;;13.50;2.60;;;0.40;99.90;;;;;;4970723;28;20051;-68
2022/01/06 08:52:26;;;;;;;4.60;1.77;;;;;;;;;;4970441;28;20518;-68
2022/01/06 08:54:51;;;;;;;9.80;2.80;;;0.20;99.90;;;;;;4970020;28;20031;-67
2022/01/06 08:57:18;;;;;;;17.10;3.30;;;0.40;99.90;;;;;;4969063;28;20843;-67
2022/01/06 08:59:44;;;;;;;12.57;4.40;;;0.40;99.90;;;;;;4979308;28;20022;-67
2022/01/06 09:02:10;;;;;;;11.67;2.60;;;0.60;99.90;;;;;;4970328;28;20070;-67
2022/01/06 09:04:36;;;;;;;13.97;2.23;;;0.50;99.90;;;;;;4969893;28;20503;-68
2022/01/06 09:07:03;;;;;;;13.37;2.87;;;;;;;;;;4968814;28;20034;-67
2022/01/06 09:09:29;;;;;;;14.00;3.03;;;0.40;99.90;;;;;;4970190;28;20027;-67
2022/01/06 09:11:55;;;;;;;15.53;3.10;;;0.70;99.90;;;;;;4968873;28;20027;-67
2022/01/06 09:14:22;;;;;;;14.07;2.17;;;0.60;99.90;;;;;;4970429;28;20399;-67
2022/01/06 09:16:49;;;;;;;13.23;2.53;;;0.70;99.90;;;;;;4969846;28;20049;-68
2022/01/06 09:19:14;;;;;;;13.57;2.87;;;1.20;99.90;;;;;;4970924;28;20054;-67
2022/01/06 09:21:40;;;;;;;14.60;2.77;;;;;;;;;;4970688;28;22393;-67
2022/01/06 09:24:07;;;;;;;16.10;4.17;;;0.70;99.90;;;;;;4970731;28;20034;-67
2022/01/06 09:26:34;;;;;;;16.07;3.43;;;0.80;99.90;;;;;;4970283;28;20022;-67
2022/01/06 09:29:02;;;;;;;12.23;3.93;;;0.80;99.90;;;;;;4970180;28;20126;-67
2022/01/06 09:31:28;;;;;;;8.90;3.30;;;1.10;99.90;;;;;;4966879;28;20043;-67
2022/01/06 09:33:53;;;;;;;15.60;4.73;;;;;;;;;;4968495;28;20527;-67
2022/01/06 09:36:19;;;;;;;13.57;3.50;;;1.10;99.90;;;;;;4970290;28;20047;-67
2022/01/06 09:38:46;;;;;;;9.23;3.63;;;;;;;;;;4970576;28;20497;-67
2022/01/06 09:41:12;;;;;;;15.50;4.60;;;1.10;99.90;;;;;;4968825;28;20019;-67
2022/01/06 09:43:38;;;;;;;15.10;3.57;;;1.20;99.90;;;;;;4968753;28;20049;-67
2022/01/06 09:46:09;;;;;;;13.00;4.37;;;1.70;99.90;;;;;;4970355;28;20386;-67
2022/01/06 09:48:40;;;;;;;20.77;4.70;;;1.40;99.90;;;;;;4970253;28;20029;-67
2022/01/06 09:51:06;;;;;;;17.43;4.33;;;1.40;99.90;;;;;;4966743;28;20062;-67
2022/01/06 09:53:32;;;;;;;15.57;4.77;;;;;;;;;;4966967;28;20046;-67
2022/01/06 09:55:58;;;;;;;11.73;4.10;;;;;;;;;;4969415;28;20038;-67
2022/01/06 09:58:26;;;;;;;11.73;3.70;;;1.50;99.90;;;;;;4970200;28;20033;-67
2022/01/06 10:00:55;;;;;;;10.80;4.03;;;1.60;99.90;;;;;;4970087;28;20034;-67
2022/01/06 10:03:21;;;;;;;8.83;3.30;;;1.50;99.90;;;;;;4970040;28;20043;-67
2022/01/06 10:05:49;;;;;;;19.53;4.93;;;1.70;99.90;;;;;;4969651;28;20034;-67
2022/01/06 10:08:27;;;;;;;11.90;4.97;;;0.80;99.90;;;;;;4969259;28;20030;-67
2022/01/06 10:11:11;;;;;;;11.17;3.57;;;1.70;99.90;;;;;;4969378;28;20476;-67
2022/01/06 10:13:38;;;;;;;12.82;4.00;;;0.80;99.90;;;;;;4967397;28;20025;-67
2022/01/06 10:16:14;;;;;;;13.27;3.67;;;1.90;99.90;;;;;;4968714;28;20476;-67
2022/01/06 10:18:41;;;;;;;13.33;3.77;;;1.80;99.90;;;;;;4969012;28;20031;-67
2022/01/06 10:21:14;;;;;;;9.90;4.40;;;2.00;99.90;;;;;;4969720;28;20472;-67
2022/01/06 10:23:41;;;;;;;11.13;3.97;;;3.30;99.90;;;;;;4968877;28;20081;-67
2022/01/06 10:26:13;;;;;;;7.87;3.07;;;2.10;99.90;;;;;;4965283;28;20680;-67
2022/01/06 10:28:39;;;;;;;16.20;3.20;;;2.30;99.90;;;;;;4965552;28;20085;-67
2022/01/06 10:31:09;;;;;;;9.97;3.70;;;2.20;99.90;;;;;;4968417;28;20436;-67
2022/01/06 10:33:41;;;;;;;16.90;5.13;;;2.30;99.90;;;;;;4969396;28;20027;-67
2022/01/06 10:36:08;;;;;;;14.33;4.03;;;2.30;99.90;;;;;;4969410;28;20035;-67
2022/01/06 10:38:35;;;;;;;10.80;3.77;;;2.40;99.90;;;;;;4968654;28;20082;-67
2022/01/06 10:41:11;;;;;;;16.57;4.70;;;2.20;99.90;;;;;;4969586;28;20027;-67
2022/01/06 10:43:37;;;;;;;11.77;4.60;;;2.30;99.90;;;;;;4967688;28;20427;-67
2022/01/06 10:46:03;;;;;;;12.33;3.97;;;2.50;99.90;;;;;;4969397;28;20031;-67
2022/01/06 10:48:29;;;;;;;16.57;4.07;;;2.40;99.90;;;;;;4969302;28;20054;-67
2022/01/06 10:50:59;;;;;;;14.87;4.03;;;2.50;99.90;;;;;;4969260;28;20053;-67
2022/01/06 10:53:25;;;;;;;15.67;4.43;;;;;;;;;;4968255;28;20134;-68
2022/01/06 10:55:50;;;;;;;9.73;4.07;;;2.70;99.90;;;;;;4968850;28;20105;-67
2022/01/06 10:58:25;;;;;;;17.27;4.83;;;2.60;99.90;;;;;;4969260;28;20630;-67
2022/01/06 11:01:00;;;;;;;15.63;4.60;;;2.90;99.90;;;;;;4969159;28;20967;-67
2022/01/06 11:03:28;;;;;;;18.97;4.57;;;2.80;99.90;;;;;;4968912;28;20046;-67
2022/01/06 11:05:59;;;;;;;16.77;4.57;;;2.80;99.90;;;;;;4967597;28;20385;-67
2022/01/06 11:08:27;;;;;;;11.23;4.83;;;2.80;99.90;;;;;;4968499;28;20072;-67
2022/01/06 11:13:49;;;;;;;15.32;3.95;;;3.10;99.90;;;;;;4954099;28;20042;-67
2022/01/06 11:16:19;;;;;;;14.37;4.67;;;3.20;99.90;;;;;;4968668;28;20022;-67
2022/01/06 11:18:56;;;;;;;24.93;7.83;;;3.10;99.90;;;;;;4968580;28;20034;-68
2022/01/06 11:21:33;;;;;;;18.27;4.80;;;3.00;99.90;;;;;;4968684;28;20035;-68
2022/01/06 11:24:28;;;;;;;9.50;3.80;;;3.10;99.90;;;;;;4969105;28;20700;-67
2022/01/06 11:27:04;;;;;;;18.00;4.83;;;3.20;99.90;;;;;;4964039;28;20043;-67
2022/01/06 11:29:36;;;;;;;7.70;4.17;;;3.20;99.90;;;;;;4963134;28;20063;-68
2022/01/06 11:32:05;;;;;;;11.30;4.37;;;3.00;99.90;;;;;;4968231;28;20054;-67
2022/01/06 11:34:37;;;;;;;9.23;4.87;;;3.60;99.90;;;;;;4968435;28;20531;-67
2022/01/06 11:37:15;;;;;;;12.87;4.23;;;3.30;99.90;;;;;;4967658;28;20026;-67
2022/01/06 11:39:41;;;;;;;12.47;4.93;;;3.10;99.90;;;;;;4967329;28;20027;-67
2022/01/06 11:42:21;;;;;;;10.30;4.20;;;3.30;99.90;;;;;;4968366;28;20116;-67
2022/01/06 11:44:55;;;;;;;10.80;3.90;;;3.20;99.90;;;;;;4963050;28;20054;-67
2022/01/06 11:47:38;;;;;;;14.00;5.70;;;3.40;99.90;;;;;;4963663;28;20046;-67
2022/01/06 11:50:13;;;;;;;11.93;5.47;;;3.50;99.90;;;;;;4969082;28;20038;-67
2022/01/06 11:52:53;;;;;;;9.00;4.63;;;3.40;99.90;;;;;;4968124;28;20019;-67
2022/01/06 11:55:20;;;;;;;13.27;5.23;;;3.60;99.90;;;;;;4968692;28;20066;-67
2022/01/06 11:57:46;;;;;;;13.83;4.40;;;3.40;99.90;;;;;;4968738;28;20023;-67
2022/01/06 12:00:26;;;;;;;10.37;5.10;;;3.70;99.90;;;;;;4968341;28;20038;-66
2022/01/06 12:03:12;;;;;;;15.37;4.17;;;3.60;99.90;;;;;;4968711;28;20035;-68
2022/01/06 12:05:41;;;;;;;14.93;5.67;;;3.80;99.90;;;;;;4972099;28;20027;-69
2022/01/06 12:08:07;;;;;;;13.73;4.60;;;;;;;;;;4972372;28;20058;-66
2022/01/06 12:10:41;;;;;;;12.37;3.83;;;3.70;99.90;;;;;;4971828;28;20053;-66
2022/01/06 12:13:07;;;;;;;14.23;5.20;;;;;;;;;;4972779;28;20505;-66
2022/01/06 12:15:33;;;;;;;16.77;4.43;;;;;;;;;;4972001;28;20027;-67
2022/01/06 12:17:59;;;;;;;11.63;5.40;;;4.00;99.90;;;;;;4966065;28;20030;-67
2022/01/06 12:20:29;;;;;;;11.03;5.43;;;4.10;99.90;;;;;;4970941;28;20035;-67
2022/01/06 12:22:55;;;;;;;11.60;4.00;;;4.00;99.90;;;;;;4972122;28;20038;-67
2022/01/06 12:25:25;;;;;;;18.23;5.47;;;4.10;99.90;;;;;;4971559;28;20073;-68
2022/01/06 12:27:55;;;;;;;13.37;5.67;;;4.00;99.90;;;;;;4971915;28;20271;-67
2022/01/06 12:30:23;;;;;;;28.17;10.43;;;4.10;99.90;;;;;;4970025;28;20051;-67
2022/01/06 12:33:03;;;;;;;25.97;13.23;;;4.20;99.90;;;;;;4971635;28;20050;-67
2022/01/06 12:35:49;;;;;;;26.30;12.20;;;4.20;99.90;;;;;;4970004;28;20503;-67
2022/01/06 12:38:22;;;;;;;13.60;6.80;;;4.40;99.90;;;;;;4970910;28;20031;-67
2022/01/06 12:40:48;;;;;;;25.10;6.83;;;;;;;;;;4972166;28;20420;-67
2022/01/06 12:43:15;;;;;;;19.50;6.10;;;4.30;99.90;;;;;;4971403;28;20073;-67
2022/01/06 12:45:41;;;;;;;12.40;5.07;;;4.70;99.90;;;;;;4971074;28;20057;-69
2022/01/06 12:48:06;;;;;;;24.43;5.40;;;4.40;99.90;;;;;;4972102;28;20062;-67
2022/01/06 12:50:49;;;;;;;15.93;4.90;;;4.40;99.90;;;;;;4970774;28;20038;-67
2022/01/06 12:53:32;;;;;;;18.27;3.97;;;4.60;99.90;;;;;;4971803;28;20027;-67
2022/01/06 12:55:58;;;;;;;14.63;3.70;;;4.50;99.90;;;;;;4972293;28;20132;-68
2022/01/06 12:58:28;;;;;;;12.23;4.10;;;4.60;99.90;;;;;;4971334;28;20038;-67
2022/01/06 13:00:59;;;;;;;11.03;4.57;;;4.80;99.90;;;;;;4971663;28;20054;-67
2022/01/06 13:03:30;;;;;;;14.03;3.40;;;4.60;99.90;;;;;;4970023;28;20387;-67
2022/01/06 13:05:57;;;;;;;10.57;3.30;;;5.00;99.90;;;;;;4971143;28;20471;-67
2022/01/06 13:08:23;;;;;;;9.57;2.93;;;;;;;;;;4970710;28;20043;-67
2022/01/06 13:10:49;;;;;;;18.77;4.43;;;;;;;;;;4970529;28;20835;-67
2022/01/06 13:13:14;;;;;;;11.70;2.93;;;;;;;;;;4970683;28;20033;-67
2022/01/06 13:15:40;;;;;;;12.80;3.13;;;5.30;99.90;;;;;;4970625;28;20018;-67
2022/01/06 13:18:06;;;;;;;14.60;3.33;;;;;;;;;;4970677;28;20533;-67
2022/01/06 13:20:37;;;;;;;13.37;3.53;;;;;;;;;;4970679;28;20027;-68